Amarillo, TX

6:35 AM CDT on August 02, 2015 (GMT -0500)
Plemons-Eakle | | Change Station
CLOSE
Current Station
Personal Weather Station
Location: Amarillo, TX
Elevation: 3678 ft
Nearby Weather Stations

Elev 3678 ft 35.19 °N, 101.84 °W | Updated 2 seconds ago

Overcast
Overcast
66.8 °F
Feels Like 66.8 °F
N
0.0
Wind Variable Wind from South
Gusts 0.0 mph

Today
High -- | Low -- °F
--% Chance of Precip.
Yesterday
High -- | Low -- °F
Precip. -- in
6:56 AM 8:49 PM
Waning Gibbous, 94% visible
Pressure 30.05 in
Visibility 10.0 miles
Clouds Few 7500 ft
Few 9500 ft
Mostly Cloudy 12000 ft
Dew Point 64 °F
Humidity 89%
Rainfall 0.00 in
Snow Depth Not available.
UV 0 out of 12
Pollen 4.60 out of 12
Air Quality Not available.
Flu Activity Not available.
SPECI KAMA 021116Z 16011KT 10SM FEW075 FEW095 BKN120 21/18 A3005 RMK AO2 LTG DSNT S AND SW TSE02 T02110178

More Conditions Fewer Conditions

Pressure 30.05 in
Visibility 10.0 miles
Clouds Few 7500 ft
Few 9500 ft
Mostly Cloudy 12000 ft
Dew Point 64 °F
Humidity 89%
Rainfall 0.00 in
Snow Depth Not available.
UV 0 out of 12
Pollen 4.60 out of 12
Air Quality Not available.
Flu Activity Not available.
SPECI KAMA 021116Z 16011KT 10SM FEW075 FEW095 BKN120 21/18 A3005 RMK AO2 LTG DSNT S AND SW TSE02 T02110178

More Conditions Fewer Conditions

Nowcast | as of 5:01 am CDT on August 2, 2015

Scattered showers and isolated thunderstorms will continue to slowly move east across the southern Texas Panhandle through 7 am. These storms could produce rainfall amounts between a few tenths of an inch up to three quarters of an inch through 6 am. Communities likely to be impacted by these storms are Amarillo...Pampa...Clarendon...Lefors...Wheeler...and Samnorwood.

×

10-Day Weather Forecast

×

Almanac

Astronomy

Aug. 02, 2015 Rise Set
Actual Time
Civil Twilight
Nautical Twilight
Astronomical Twilight
Moon
Length of Visible Light
Length of Day
Tomorrow will be .
, % of the Moon is Illuminated

Today's Extremes

State Highs State Lows

Community

WunderPhotos

Upload Photos

1,843,233 photos uploaded!

WunderBlogs® & News

Nearby

Air Quality

  Air Quality AQ Index Pollutant
Not available.

Snow Depth

Station Depth Elevation

Earthquake Activity

City Distance Mag. Time & Date
Minimum magnitude displayed is 2.5.

Coastal Water Temperatures

Place Temperature

Stations

Nearby Weather Stations

Station Location Temp. Windchill Dew Point Humidity Wind Precip. Elev Updated Type